sensor_id;sensor_type;location;lat;lon;timestamp;pressure;altitude;pressure_sealevel;temperature
19644;BMP180;9970;-36.854;174.870;2023-07-20T00:00:12;100684.00;;;14.50
19644;BMP180;9970;-36.854;174.870;2023-07-20T00:02:45;100680.00;;;14.60
19644;BMP180;9970;-36.854;174.870;2023-07-20T00:05:18;100670.00;;;14.60
19644;BMP180;9970;-36.854;174.870;2023-07-20T00:07:52;100661.00;;;14.60
19644;BMP180;9970;-36.854;174.870;2023-07-20T00:10:25;100653.00;;;14.60
19644;BMP180;9970;-36.854;174.870;2023-07-20T00:12:58;100653.00;;;14.60
19644;BMP180;9970;-36.854;174.870;2023-07-20T00:15:31;100636.00;;;14.60
19644;BMP180;9970;-36.854;174.870;2023-07-20T00:18:04;100628.00;;;14.60
19644;BMP180;9970;-36.854;174.870;2023-07-20T00:20:37;100635.00;;;14.60
19644;BMP180;9970;-36.854;174.870;2023-07-20T00:23:10;100631.00;;;14.60
19644;BMP180;9970;-36.854;174.870;2023-07-20T00:25:44;100615.00;;;14.60
19644;BMP180;9970;-36.854;174.870;2023-07-20T00:28:16;100605.00;;;14.70
19644;BMP180;9970;-36.854;174.870;2023-07-20T00:30:54;100603.00;;;14.70
19644;BMP180;9970;-36.854;174.870;2023-07-20T00:33:28;100603.00;;;14.70
19644;BMP180;9970;-36.854;174.870;2023-07-20T00:36:01;100603.00;;;14.70
19644;BMP180;9970;-36.854;174.870;2023-07-20T00:38:34;100575.00;;;14.70
19644;BMP180;9970;-36.854;174.870;2023-07-20T00:41:07;100588.00;;;14.70
19644;BMP180;9970;-36.854;174.870;2023-07-20T00:43:44;100590.00;;;14.70
19644;BMP180;9970;-36.854;174.870;2023-07-20T00:46:17;100593.00;;;14.70
19644;BMP180;9970;-36.854;174.870;2023-07-20T00:48:50;100588.00;;;14.70
19644;BMP180;9970;-36.854;174.870;2023-07-20T00:51:24;100583.00;;;14.70
19644;BMP180;9970;-36.854;174.870;2023-07-20T00:53:58;100596.00;;;14.70
19644;BMP180;9970;-36.854;174.870;2023-07-20T00:56:31;100597.00;;;14.70
19644;BMP180;9970;-36.854;174.870;2023-07-20T00:59:04;100586.00;;;14.70
19644;BMP180;9970;-36.854;174.870;2023-07-20T01:01:37;100596.00;;;14.70
19644;BMP180;9970;-36.854;174.870;2023-07-20T01:04:10;100575.00;;;14.60
19644;BMP180;9970;-36.854;174.870;2023-07-20T01:06:57;100591.00;;;14.60
19644;BMP180;9970;-36.854;174.870;2023-07-20T01:09:52;100587.00;;;14.60
19644;BMP180;9970;-36.854;174.870;2023-07-20T01:12:38;100583.00;;;14.60
19644;BMP180;9970;-36.854;174.870;2023-07-20T01:15:06;100572.00;;;14.60
19644;BMP180;9970;-36.854;174.870;2023-07-20T01:17:39;100565.00;;;14.60
19644;BMP180;9970;-36.854;174.870;2023-07-20T01:20:13;100573.00;;;14.50
19644;BMP180;9970;-36.854;174.870;2023-07-20T01:28:48;100566.00;;;14.50
19644;BMP180;9970;-36.854;174.870;2023-07-20T01:31:32;100559.00;;;14.50
19644;BMP180;9970;-36.854;174.870;2023-07-20T01:34:01;100550.00;;;14.50
19644;BMP180;9970;-36.854;174.870;2023-07-20T01:36:39;100547.00;;;14.50
19644;BMP180;9970;-36.854;174.870;2023-07-20T01:39:12;100546.00;;;14.50
19644;BMP180;9970;-36.854;174.870;2023-07-20T01:41:46;100537.00;;;14.50
19644;BMP180;9970;-36.854;174.870;2023-07-20T01:44:19;100539.00;;;14.50
19644;BMP180;9970;-36.854;174.870;2023-07-20T01:46:52;100534.00;;;14.50
19644;BMP180;9970;-36.854;174.870;2023-07-20T01:49:25;100531.00;;;14.50
19644;BMP180;9970;-36.854;174.870;2023-07-20T01:51:58;100521.00;;;14.50
19644;BMP180;9970;-36.854;174.870;2023-07-20T01:54:31;100525.00;;;14.50
19644;BMP180;9970;-36.854;174.870;2023-07-20T01:57:04;100522.00;;;14.50
19644;BMP180;9970;-36.854;174.870;2023-07-20T01:59:37;100517.00;;;14.60
19644;BMP180;9970;-36.854;174.870;2023-07-20T02:02:10;100509.00;;;14.60
19644;BMP180;9970;-36.854;174.870;2023-07-20T02:04:43;100505.00;;;14.60
19644;BMP180;9970;-36.854;174.870;2023-07-20T02:07:20;100503.00;;;14.60
19644;BMP180;9970;-36.854;174.870;2023-07-20T02:09:53;100503.00;;;14.60
19644;BMP180;9970;-36.854;174.870;2023-07-20T02:12:30;100500.00;;;14.60
19644;BMP180;9970;-36.854;174.870;2023-07-20T02:15:03;100493.00;;;14.60
19644;BMP180;9970;-36.854;174.870;2023-07-20T02:17:36;100484.00;;;14.60
19644;BMP180;9970;-36.854;174.870;2023-07-20T02:20:11;100493.00;;;14.60
19644;BMP180;9970;-36.854;174.870;2023-07-20T02:22:44;100493.00;;;14.60
19644;BMP180;9970;-36.854;174.870;2023-07-20T02:25:17;100491.00;;;14.60
19644;BMP180;9970;-36.854;174.870;2023-07-20T02:27:50;100499.00;;;14.60
19644;BMP180;9970;-36.854;174.870;2023-07-20T02:30:23;100498.00;;;14.60
19644;BMP180;9970;-36.854;174.870;2023-07-20T02:32:56;100497.00;;;14.60
19644;BMP180;9970;-36.854;174.870;2023-07-20T02:35:30;100501.00;;;14.60
19644;BMP180;9970;-36.854;174.870;2023-07-20T02:38:03;100503.00;;;14.60
19644;BMP180;9970;-36.854;174.870;2023-07-20T02:40:37;100494.00;;;14.60
19644;BMP180;9970;-36.854;174.870;2023-07-20T02:43:10;100490.00;;;14.70
19644;BMP180;9970;-36.854;174.870;2023-07-20T02:45:43;100501.00;;;14.70
19644;BMP180;9970;-36.854;174.870;2023-07-20T02:48:16;100494.00;;;14.70
19644;BMP180;9970;-36.854;174.870;2023-07-20T02:50:49;100503.00;;;14.70
19644;BMP180;9970;-36.854;174.870;2023-07-20T02:53:27;100490.00;;;14.70
19644;BMP180;9970;-36.854;174.870;2023-07-20T02:56:00;100487.00;;;14.70
19644;BMP180;9970;-36.854;174.870;2023-07-20T02:58:39;100476.00;;;14.70
19644;BMP180;9970;-36.854;174.870;2023-07-20T03:01:09;100488.00;;;14.70
19644;BMP180;9970;-36.854;174.870;2023-07-20T03:03:43;100494.00;;;14.70
19644;BMP180;9970;-36.854;174.870;2023-07-20T03:06:18;100492.00;;;14.70
19644;BMP180;9970;-36.854;174.870;2023-07-20T03:08:51;100491.00;;;14.70
19644;BMP180;9970;-36.854;174.870;2023-07-20T03:11:24;100488.00;;;14.70
19644;BMP180;9970;-36.854;174.870;2023-07-20T03:13:57;100476.00;;;14.70
19644;BMP180;9970;-36.854;174.870;2023-07-20T03:16:30;100480.00;;;14.70
19644;BMP180;9970;-36.854;174.870;2023-07-20T03:19:04;100474.00;;;14.70
19644;BMP180;9970;-36.854;174.870;2023-07-20T03:21:37;100461.00;;;14.70
19644;BMP180;9970;-36.854;174.870;2023-07-20T03:24:12;100466.00;;;14.70
19644;BMP180;9970;-36.854;174.870;2023-07-20T03:26:45;100472.00;;;14.70
19644;BMP180;9970;-36.854;174.870;2023-07-20T03:29:18;100459.00;;;14.70
19644;BMP180;9970;-36.854;174.870;2023-07-20T03:31:51;100466.00;;;14.70
19644;BMP180;9970;-36.854;174.870;2023-07-20T03:34:25;100459.00;;;14.70
19644;BMP180;9970;-36.854;174.870;2023-07-20T03:36:58;100449.00;;;14.70
19644;BMP180;9970;-36.854;174.870;2023-07-20T03:39:32;100461.00;;;14.70
19644;BMP180;9970;-36.854;174.870;2023-07-20T03:42:05;100442.00;;;14.70
19644;BMP180;9970;-36.854;174.870;2023-07-20T03:44:38;100435.00;;;14.70
19644;BMP180;9970;-36.854;174.870;2023-07-20T03:47:11;100436.00;;;14.70
19644;BMP180;9970;-36.854;174.870;2023-07-20T03:49:44;100436.00;;;14.70
19644;BMP180;9970;-36.854;174.870;2023-07-20T03:52:17;100421.00;;;14.70
19644;BMP180;9970;-36.854;174.870;2023-07-20T03:54:50;100424.00;;;14.70
19644;BMP180;9970;-36.854;174.870;2023-07-20T03:57:23;100418.00;;;14.70
19644;BMP180;9970;-36.854;174.870;2023-07-20T03:59:56;100419.00;;;14.70
19644;BMP180;9970;-36.854;174.870;2023-07-20T04:02:29;100418.00;;;14.70
19644;BMP180;9970;-36.854;174.870;2023-07-20T04:05:02;100398.00;;;14.70
19644;BMP180;9970;-36.854;174.870;2023-07-20T04:07:35;100398.00;;;14.70
19644;BMP180;9970;-36.854;174.870;2023-07-20T04:10:08;100393.00;;;14.70
19644;BMP180;9970;-36.854;174.870;2023-07-20T04:12:41;100398.00;;;14.70
19644;BMP180;9970;-36.854;174.870;2023-07-20T04:15:15;100403.00;;;14.70
19644;BMP180;9970;-36.854;174.870;2023-07-20T04:17:48;100404.00;;;14.60
19644;BMP180;9970;-36.854;174.870;2023-07-20T04:20:21;100404.00;;;14.60
19644;BMP180;9970;-36.854;174.870;2023-07-20T04:22:54;100422.00;;;14.60
19644;BMP180;9970;-36.854;174.870;2023-07-20T04:25:27;100407.00;;;14.60
19644;BMP180;9970;-36.854;174.870;2023-07-20T04:28:00;100402.00;;;14.60
19644;BMP180;9970;-36.854;174.870;2023-07-20T04:30:33;100402.00;;;14.60
19644;BMP180;9970;-36.854;174.870;2023-07-20T04:33:07;100398.00;;;14.70
19644;BMP180;9970;-36.854;174.870;2023-07-20T04:35:54;100401.00;;;14.60
19644;BMP180;9970;-36.854;174.870;2023-07-20T04:38:27;100410.00;;;14.60
19644;BMP180;9970;-36.854;174.870;2023-07-20T04:41:00;100398.00;;;14.60
19644;BMP180;9970;-36.854;174.870;2023-07-20T04:43:33;100408.00;;;14.70
19644;BMP180;9970;-36.854;174.870;2023-07-20T04:46:06;100413.00;;;14.60
19644;BMP180;9970;-36.854;174.870;2023-07-20T04:48:39;100401.00;;;14.70
19644;BMP180;9970;-36.854;174.870;2023-07-20T04:51:12;100390.00;;;14.70
19644;BMP180;9970;-36.854;174.870;2023-07-20T04:53:45;100395.00;;;14.70
19644;BMP180;9970;-36.854;174.870;2023-07-20T04:56:18;100389.00;;;14.70
19644;BMP180;9970;-36.854;174.870;2023-07-20T04:58:51;100384.00;;;14.70
19644;BMP180;9970;-36.854;174.870;2023-07-20T05:01:24;100385.00;;;14.70
19644;BMP180;9970;-36.854;174.870;2023-07-20T05:03:58;100390.00;;;14.70
19644;BMP180;9970;-36.854;174.870;2023-07-20T05:06:30;100402.00;;;14.70
19644;BMP180;9970;-36.854;174.870;2023-07-20T05:09:04;100395.00;;;14.70
19644;BMP180;9970;-36.854;174.870;2023-07-20T05:11:38;100395.00;;;14.70
19644;BMP180;9970;-36.854;174.870;2023-07-20T05:14:10;100378.00;;;14.70
19644;BMP180;9970;-36.854;174.870;2023-07-20T05:16:44;100381.00;;;14.60
19644;BMP180;9970;-36.854;174.870;2023-07-20T05:19:16;100361.00;;;14.60
19644;BMP180;9970;-36.854;174.870;2023-07-20T05:21:49;100360.00;;;14.60
19644;BMP180;9970;-36.854;174.870;2023-07-20T05:24:22;100369.00;;;14.60
19644;BMP180;9970;-36.854;174.870;2023-07-20T05:26:56;100365.00;;;14.60
19644;BMP180;9970;-36.854;174.870;2023-07-20T05:29:28;100350.00;;;14.50
19644;BMP180;9970;-36.854;174.870;2023-07-20T05:32:02;100352.00;;;14.50
19644;BMP180;9970;-36.854;174.870;2023-07-20T05:34:35;100336.00;;;14.50
19644;BMP180;9970;-36.854;174.870;2023-07-20T05:37:08;100336.00;;;14.50
19644;BMP180;9970;-36.854;174.870;2023-07-20T05:39:42;100335.00;;;14.50
19644;BMP180;9970;-36.854;174.870;2023-07-20T05:42:16;100318.00;;;14.50
19644;BMP180;9970;-36.854;174.870;2023-07-20T05:44:48;100317.00;;;14.50
19644;BMP180;9970;-36.854;174.870;2023-07-20T05:47:23;100312.00;;;14.50
19644;BMP180;9970;-36.854;174.870;2023-07-20T05:49:56;100318.00;;;14.50
19644;BMP180;9970;-36.854;174.870;2023-07-20T05:52:29;100311.00;;;14.50
19644;BMP180;9970;-36.854;174.870;2023-07-20T05:55:04;100299.00;;;14.50
19644;BMP180;9970;-36.854;174.870;2023-07-20T05:57:42;100314.00;;;14.60
19644;BMP180;9970;-36.854;174.870;2023-07-20T06:00:15;100301.00;;;14.50
19644;BMP180;9970;-36.854;174.870;2023-07-20T06:02:50;100304.00;;;14.60
19644;BMP180;9970;-36.854;174.870;2023-07-20T06:05:27;100306.00;;;14.60
19644;BMP180;9970;-36.854;174.870;2023-07-20T06:08:00;100304.00;;;14.60
19644;BMP180;9970;-36.854;174.870;2023-07-20T06:10:34;100306.00;;;14.60
19644;BMP180;9970;-36.854;174.870;2023-07-20T06:13:07;100308.00;;;14.60
19644;BMP180;9970;-36.854;174.870;2023-07-20T06:15:41;100317.00;;;14.60
19644;BMP180;9970;-36.854;174.870;2023-07-20T06:18:14;100315.00;;;14.60
19644;BMP180;9970;-36.854;174.870;2023-07-20T06:20:54;100309.00;;;14.60
19644;BMP180;9970;-36.854;174.870;2023-07-20T06:23:27;100316.00;;;14.60
19644;BMP180;9970;-36.854;174.870;2023-07-20T06:25:59;100304.00;;;14.60
19644;BMP180;9970;-36.854;174.870;2023-07-20T06:28:32;100304.00;;;14.60
19644;BMP180;9970;-36.854;174.870;2023-07-20T06:31:05;100321.00;;;14.60
19644;BMP180;9970;-36.854;174.870;2023-07-20T06:33:39;100316.00;;;14.60
19644;BMP180;9970;-36.854;174.870;2023-07-20T06:36:12;100302.00;;;14.60
19644;BMP180;9970;-36.854;174.870;2023-07-20T06:38:45;100315.00;;;14.60
19644;BMP180;9970;-36.854;174.870;2023-07-20T06:41:19;100311.00;;;14.60
19644;BMP180;9970;-36.854;174.870;2023-07-20T06:43:53;100309.00;;;14.60
19644;BMP180;9970;-36.854;174.870;2023-07-20T06:46:27;100309.00;;;14.60
19644;BMP180;9970;-36.854;174.870;2023-07-20T06:49:01;100314.00;;;14.60
19644;BMP180;9970;-36.854;174.870;2023-07-20T06:51:39;100308.00;;;14.70
19644;BMP180;9970;-36.854;174.870;2023-07-20T06:54:11;100309.00;;;14.70
19644;BMP180;9970;-36.854;174.870;2023-07-20T06:56:44;100308.00;;;14.70
19644;BMP180;9970;-36.854;174.870;2023-07-20T06:59:18;100309.00;;;14.70
19644;BMP180;9970;-36.854;174.870;2023-07-20T07:01:52;100296.00;;;14.70
19644;BMP180;9970;-36.854;174.870;2023-07-20T07:04:25;100290.00;;;14.70
19644;BMP180;9970;-36.854;174.870;2023-07-20T07:06:58;100281.00;;;14.70
19644;BMP180;9970;-36.854;174.870;2023-07-20T07:09:31;100273.00;;;14.70
19644;BMP180;9970;-36.854;174.870;2023-07-20T07:12:06;100265.00;;;14.70
19644;BMP180;9970;-36.854;174.870;2023-07-20T07:14:40;100281.00;;;14.70
19644;BMP180;9970;-36.854;174.870;2023-07-20T07:17:13;100277.00;;;14.70
19644;BMP180;9970;-36.854;174.870;2023-07-20T07:19:47;100296.00;;;14.70
19644;BMP180;9970;-36.854;174.870;2023-07-20T07:22:20;100269.00;;;14.70
19644;BMP180;9970;-36.854;174.870;2023-07-20T07:24:53;100275.00;;;14.70
19644;BMP180;9970;-36.854;174.870;2023-07-20T07:27:26;100259.00;;;14.70
19644;BMP180;9970;-36.854;174.870;2023-07-20T07:30:04;100256.00;;;14.70
19644;BMP180;9970;-36.854;174.870;2023-07-20T07:32:37;100261.00;;;14.70
19644;BMP180;9970;-36.854;174.870;2023-07-20T07:35:10;100258.00;;;14.70
19644;BMP180;9970;-36.854;174.870;2023-07-20T07:37:43;100246.00;;;14.70
19644;BMP180;9970;-36.854;174.870;2023-07-20T07:40:19;100238.00;;;14.70
19644;BMP180;9970;-36.854;174.870;2023-07-20T07:42:52;100243.00;;;14.70
19644;BMP180;9970;-36.854;174.870;2023-07-20T07:45:25;100239.00;;;14.70
19644;BMP180;9970;-36.854;174.870;2023-07-20T07:47:57;100254.00;;;14.70
19644;BMP180;9970;-36.854;174.870;2023-07-20T07:50:30;100237.00;;;14.70
19644;BMP180;9970;-36.854;174.870;2023-07-20T07:53:03;100231.00;;;14.70
19644;BMP180;9970;-36.854;174.870;2023-07-20T07:55:40;100222.00;;;14.70
19644;BMP180;9970;-36.854;174.870;2023-07-20T07:58:13;100232.00;;;14.70
19644;BMP180;9970;-36.854;174.870;2023-07-20T08:00:47;100219.00;;;14.70
19644;BMP180;9970;-36.854;174.870;2023-07-20T08:03:20;100218.00;;;14.70
19644;BMP180;9970;-36.854;174.870;2023-07-20T08:05:57;100202.00;;;14.70
19644;BMP180;9970;-36.854;174.870;2023-07-20T08:08:35;100197.00;;;14.70
19644;BMP180;9970;-36.854;174.870;2023-07-20T08:11:08;100176.00;;;14.70
19644;BMP180;9970;-36.854;174.870;2023-07-20T08:13:42;100156.00;;;14.70
19644;BMP180;9970;-36.854;174.870;2023-07-20T08:16:18;100163.00;;;14.70
19644;BMP180;9970;-36.854;174.870;2023-07-20T08:18:51;100174.00;;;14.70
19644;BMP180;9970;-36.854;174.870;2023-07-20T08:21:25;100166.00;;;14.70
19644;BMP180;9970;-36.854;174.870;2023-07-20T08:23:58;100153.00;;;14.70
19644;BMP180;9970;-36.854;174.870;2023-07-20T08:26:31;100168.00;;;14.70
19644;BMP180;9970;-36.854;174.870;2023-07-20T08:29:04;100165.00;;;14.70
19644;BMP180;9970;-36.854;174.870;2023-07-20T08:31:37;100166.00;;;14.70
19644;BMP180;9970;-36.854;174.870;2023-07-20T08:34:10;100174.00;;;14.70
19644;BMP180;9970;-36.854;174.870;2023-07-20T08:36:43;100180.00;;;14.70
19644;BMP180;9970;-36.854;174.870;2023-07-20T08:39:18;100178.00;;;14.70
19644;BMP180;9970;-36.854;174.870;2023-07-20T08:41:52;100175.00;;;14.70
19644;BMP180;9970;-36.854;174.870;2023-07-20T08:44:26;100195.00;;;14.70
19644;BMP180;9970;-36.854;174.870;2023-07-20T08:47:05;100191.00;;;14.70
19644;BMP180;9970;-36.854;174.870;2023-07-20T08:49:39;100206.00;;;14.70
19644;BMP180;9970;-36.854;174.870;2023-07-20T08:52:13;100195.00;;;14.70
19644;BMP180;9970;-36.854;174.870;2023-07-20T08:54:47;100212.00;;;14.70
19644;BMP180;9970;-36.854;174.870;2023-07-20T08:57:21;100207.00;;;14.70
19644;BMP180;9970;-36.854;174.870;2023-07-20T08:59:55;100203.00;;;14.70
19644;BMP180;9970;-36.854;174.870;2023-07-20T09:02:28;100204.00;;;14.70
19644;BMP180;9970;-36.854;174.870;2023-07-20T09:05:02;100206.00;;;14.70
19644;BMP180;9970;-36.854;174.870;2023-07-20T09:07:36;100181.00;;;14.70
19644;BMP180;9970;-36.854;174.870;2023-07-20T09:10:09;100187.00;;;14.70
19644;BMP180;9970;-36.854;174.870;2023-07-20T09:12:43;100185.00;;;14.70
19644;BMP180;9970;-36.854;174.870;2023-07-20T09:15:17;100172.00;;;14.70
19644;BMP180;9970;-36.854;174.870;2023-07-20T09:17:51;100174.00;;;14.70
19644;BMP180;9970;-36.854;174.870;2023-07-20T09:20:25;100173.00;;;14.70
19644;BMP180;9970;-36.854;174.870;2023-07-20T09:22:58;100162.00;;;14.70
19644;BMP180;9970;-36.854;174.870;2023-07-20T09:25:31;100165.00;;;14.60
19644;BMP180;9970;-36.854;174.870;2023-07-20T09:28:05;100171.00;;;14.60
19644;BMP180;9970;-36.854;174.870;2023-07-20T09:30:39;100160.00;;;14.60
19644;BMP180;9970;-36.854;174.870;2023-07-20T09:33:24;100144.00;;;14.60
19644;BMP180;9970;-36.854;174.870;2023-07-20T09:36:01;100138.00;;;14.60
19644;BMP180;9970;-36.854;174.870;2023-07-20T09:38:34;100144.00;;;14.60
19644;BMP180;9970;-36.854;174.870;2023-07-20T09:41:14;100147.00;;;14.60
19644;BMP180;9970;-36.854;174.870;2023-07-20T09:43:48;100125.00;;;14.60
19644;BMP180;9970;-36.854;174.870;2023-07-20T09:46:22;100139.00;;;14.60
19644;BMP180;9970;-36.854;174.870;2023-07-20T09:48:56;100115.00;;;14.60
19644;BMP180;9970;-36.854;174.870;2023-07-20T09:51:30;100108.00;;;14.60
19644;BMP180;9970;-36.854;174.870;2023-07-20T09:54:03;100103.00;;;14.60
19644;BMP180;9970;-36.854;174.870;2023-07-20T09:56:37;100087.00;;;14.60
19644;BMP180;9970;-36.854;174.870;2023-07-20T09:59:10;100093.00;;;14.60
19644;BMP180;9970;-36.854;174.870;2023-07-20T10:01:44;100075.00;;;14.60
19644;BMP180;9970;-36.854;174.870;2023-07-20T10:04:19;100058.00;;;14.60
19644;BMP180;9970;-36.854;174.870;2023-07-20T10:06:55;100068.00;;;14.60
19644;BMP180;9970;-36.854;174.870;2023-07-20T10:09:28;100080.00;;;14.60
19644;BMP180;9970;-36.854;174.870;2023-07-20T10:12:02;100068.00;;;14.60
19644;BMP180;9970;-36.854;174.870;2023-07-20T10:14:38;100079.00;;;14.60
19644;BMP180;9970;-36.854;174.870;2023-07-20T10:17:11;100067.00;;;14.60
19644;BMP180;9970;-36.854;174.870;2023-07-20T10:19:49;100069.00;;;14.50
19644;BMP180;9970;-36.854;174.870;2023-07-20T10:22:26;100068.00;;;14.60
19644;BMP180;9970;-36.854;174.870;2023-07-20T10:25:02;100076.00;;;14.60
19644;BMP180;9970;-36.854;174.870;2023-07-20T10:27:36;100083.00;;;14.50
19644;BMP180;9970;-36.854;174.870;2023-07-20T10:30:10;100085.00;;;14.50
19644;BMP180;9970;-36.854;174.870;2023-07-20T10:32:45;100077.00;;;14.50
19644;BMP180;9970;-36.854;174.870;2023-07-20T10:35:19;100077.00;;;14.60
19644;BMP180;9970;-36.854;174.870;2023-07-20T10:37:53;100063.00;;;14.60
19644;BMP180;9970;-36.854;174.870;2023-07-20T10:40:27;100082.00;;;14.60
19644;BMP180;9970;-36.854;174.870;2023-07-20T10:43:03;100077.00;;;14.50
19644;BMP180;9970;-36.854;174.870;2023-07-20T10:45:42;100084.00;;;14.60
19644;BMP180;9970;-36.854;174.870;2023-07-20T10:48:23;100073.00;;;14.60
19644;BMP180;9970;-36.854;174.870;2023-07-20T10:51:25;100067.00;;;14.50
19644;BMP180;9970;-36.854;174.870;2023-07-20T10:53:50;100048.00;;;14.50
19644;BMP180;9970;-36.854;174.870;2023-07-20T10:56:27;100046.00;;;14.50
19644;BMP180;9970;-36.854;174.870;2023-07-20T10:59:00;100030.00;;;14.50
19644;BMP180;9970;-36.854;174.870;2023-07-20T11:01:35;100031.00;;;14.50
19644;BMP180;9970;-36.854;174.870;2023-07-20T11:04:09;100037.00;;;14.50
19644;BMP180;9970;-36.854;174.870;2023-07-20T11:06:46;100017.00;;;14.40
19644;BMP180;9970;-36.854;174.870;2023-07-20T11:09:21;100023.00;;;14.40
19644;BMP180;9970;-36.854;174.870;2023-07-20T11:12:09;100015.00;;;14.30
19644;BMP180;9970;-36.854;174.870;2023-07-20T11:14:30;100008.00;;;14.30
19644;BMP180;9970;-36.854;174.870;2023-07-20T11:17:14;100010.00;;;14.20
19644;BMP180;9970;-36.854;174.870;2023-07-20T11:19:56;100014.00;;;14.20
19644;BMP180;9970;-36.854;174.870;2023-07-20T11:22:31;100001.00;;;14.10
19644;BMP180;9970;-36.854;174.870;2023-07-20T11:25:07;100004.00;;;14.10
19644;BMP180;9970;-36.854;174.870;2023-07-20T11:27:45;100015.00;;;14.00
19644;BMP180;9970;-36.854;174.870;2023-07-20T11:30:19;100011.00;;;14.00
19644;BMP180;9970;-36.854;174.870;2023-07-20T11:32:52;99997.00;;;14.00
19644;BMP180;9970;-36.854;174.870;2023-07-20T11:35:25;99990.00;;;13.90
19644;BMP180;9970;-36.854;174.870;2023-07-20T11:37:59;99984.00;;;13.90
19644;BMP180;9970;-36.854;174.870;2023-07-20T11:40:32;99977.00;;;13.90
19644;BMP180;9970;-36.854;174.870;2023-07-20T11:43:05;99981.00;;;13.90
19644;BMP180;9970;-36.854;174.870;2023-07-20T11:45:40;99990.00;;;13.90
19644;BMP180;9970;-36.854;174.870;2023-07-20T11:48:20;99979.00;;;13.90
19644;BMP180;9970;-36.854;174.870;2023-07-20T11:50:53;99975.00;;;13.90
19644;BMP180;9970;-36.854;174.870;2023-07-20T11:53:26;99973.00;;;13.90
19644;BMP180;9970;-36.854;174.870;2023-07-20T11:55:59;99959.00;;;13.90
19644;BMP180;9970;-36.854;174.870;2023-07-20T11:58:32;99957.00;;;13.90
19644;BMP180;9970;-36.854;174.870;2023-07-20T12:01:05;99951.00;;;13.90
19644;BMP180;9970;-36.854;174.870;2023-07-20T12:03:38;99929.00;;;13.90
19644;BMP180;9970;-36.854;174.870;2023-07-20T12:06:11;99931.00;;;13.90
19644;BMP180;9970;-36.854;174.870;2023-07-20T12:08:44;99920.00;;;13.90
19644;BMP180;9970;-36.854;174.870;2023-07-20T12:11:36;99899.00;;;13.90
19644;BMP180;9970;-36.854;174.870;2023-07-20T12:14:10;99888.00;;;13.90
19644;BMP180;9970;-36.854;174.870;2023-07-20T12:16:43;99875.00;;;13.90
19644;BMP180;9970;-36.854;174.870;2023-07-20T12:19:17;99866.00;;;13.90
19644;BMP180;9970;-36.854;174.870;2023-07-20T12:21:50;99865.00;;;13.90
19644;BMP180;9970;-36.854;174.870;2023-07-20T12:24:23;99863.00;;;13.90
19644;BMP180;9970;-36.854;174.870;2023-07-20T12:26:59;99854.00;;;13.90
19644;BMP180;9970;-36.854;174.870;2023-07-20T12:29:32;99856.00;;;13.90
19644;BMP180;9970;-36.854;174.870;2023-07-20T12:32:06;99846.00;;;13.90
19644;BMP180;9970;-36.854;174.870;2023-07-20T12:34:39;99836.00;;;13.90
19644;BMP180;9970;-36.854;174.870;2023-07-20T12:37:12;99840.00;;;13.80
19644;BMP180;9970;-36.854;174.870;2023-07-20T12:39:45;99840.00;;;13.90
19644;BMP180;9970;-36.854;174.870;2023-07-20T12:42:19;99835.00;;;13.90
19644;BMP180;9970;-36.854;174.870;2023-07-20T12:44:53;99818.00;;;13.80
19644;BMP180;9970;-36.854;174.870;2023-07-20T12:47:26;99807.00;;;13.80
19644;BMP180;9970;-36.854;174.870;2023-07-20T12:49:59;99809.00;;;13.90
19644;BMP180;9970;-36.854;174.870;2023-07-20T12:52:32;99819.00;;;13.90
19644;BMP180;9970;-36.854;174.870;2023-07-20T12:55:11;99821.00;;;13.80
19644;BMP180;9970;-36.854;174.870;2023-07-20T12:57:40;99825.00;;;13.90
19644;BMP180;9970;-36.854;174.870;2023-07-20T13:00:14;99817.00;;;13.80
19644;BMP180;9970;-36.854;174.870;2023-07-20T13:02:47;99819.00;;;13.80
19644;BMP180;9970;-36.854;174.870;2023-07-20T13:05:21;99833.00;;;13.80
19644;BMP180;9970;-36.854;174.870;2023-07-20T13:07:55;99837.00;;;13.80
19644;BMP180;9970;-36.854;174.870;2023-07-20T13:10:29;99826.00;;;13.80
19644;BMP180;9970;-36.854;174.870;2023-07-20T13:13:02;99830.00;;;13.80
19644;BMP180;9970;-36.854;174.870;2023-07-20T13:15:42;99830.00;;;13.80
19644;BMP180;9970;-36.854;174.870;2023-07-20T13:18:16;99821.00;;;13.90
19644;BMP180;9970;-36.854;174.870;2023-07-20T13:20:49;99821.00;;;13.90
19644;BMP180;9970;-36.854;174.870;2023-07-20T13:23:22;99807.00;;;13.90
19644;BMP180;9970;-36.854;174.870;2023-07-20T13:25:55;99805.00;;;13.90
19644;BMP180;9970;-36.854;174.870;2023-07-20T13:28:28;99820.00;;;13.90
19644;BMP180;9970;-36.854;174.870;2023-07-20T13:31:02;99807.00;;;13.90
19644;BMP180;9970;-36.854;174.870;2023-07-20T13:33:35;99807.00;;;13.90
19644;BMP180;9970;-36.854;174.870;2023-07-20T13:36:08;99809.00;;;13.90
19644;BMP180;9970;-36.854;174.870;2023-07-20T13:38:41;99812.00;;;13.90
19644;BMP180;9970;-36.854;174.870;2023-07-20T13:41:14;99802.00;;;13.90
19644;BMP180;9970;-36.854;174.870;2023-07-20T13:43:47;99802.00;;;13.90
19644;BMP180;9970;-36.854;174.870;2023-07-20T13:46:22;99803.00;;;13.90
19644;BMP180;9970;-36.854;174.870;2023-07-20T13:48:56;99801.00;;;13.90
19644;BMP180;9970;-36.854;174.870;2023-07-20T13:51:34;99790.00;;;13.90
19644;BMP180;9970;-36.854;174.870;2023-07-20T13:54:07;99786.00;;;13.90
19644;BMP180;9970;-36.854;174.870;2023-07-20T13:56:41;99804.00;;;13.90
19644;BMP180;9970;-36.854;174.870;2023-07-20T13:59:15;99796.00;;;13.90
19644;BMP180;9970;-36.854;174.870;2023-07-20T14:01:48;99790.00;;;13.90
19644;BMP180;9970;-36.854;174.870;2023-07-20T14:04:22;99781.00;;;13.90
19644;BMP180;9970;-36.854;174.870;2023-07-20T14:06:55;99779.00;;;13.90
19644;BMP180;9970;-36.854;174.870;2023-07-20T14:09:28;99777.00;;;13.90
19644;BMP180;9970;-36.854;174.870;2023-07-20T14:12:01;99775.00;;;13.90
19644;BMP180;9970;-36.854;174.870;2023-07-20T14:14:35;99776.00;;;13.90
19644;BMP180;9970;-36.854;174.870;2023-07-20T14:17:08;99769.00;;;13.90